createdAt,value
2019-02-20T00:30:58.455Z,10.50
2019-02-20T00:33:29.401Z,10.10
2019-02-20T00:35:59.509Z,10.23
2019-02-20T00:38:28.651Z,11.00
2019-02-20T00:40:58.425Z,10.70
2019-02-20T00:43:28.347Z,9.97
2019-02-20T00:46:02.138Z,9.73
2019-02-20T00:48:40.044Z,10.70
2019-02-20T00:51:25.667Z,9.57
2019-02-20T00:53:59.330Z,9.70
2019-02-20T00:56:28.715Z,9.93
2019-02-20T00:58:59.334Z,10.13
2019-02-20T01:01:28.947Z,10.60
2019-02-20T01:03:59.985Z,10.73
2019-02-20T01:06:29.738Z,11.20
2019-02-20T01:08:59.362Z,10.60
2019-02-20T01:11:29.679Z,9.73
2019-02-20T01:13:59.834Z,9.93
2019-02-20T01:16:30.908Z,10.30
2019-02-20T01:19:00.114Z,10.83
2019-02-20T01:21:29.807Z,10.83
2019-02-20T01:23:59.933Z,10.83
2019-02-20T01:26:29.153Z,10.70
2019-02-20T01:28:58.387Z,10.97
2019-02-20T01:31:27.825Z,11.17
2019-02-20T01:34:00.234Z,10.17
2019-02-20T01:36:29.963Z,11.03
2019-02-20T01:39:01.521Z,11.33
2019-02-20T01:41:30.975Z,11.57
2019-02-20T01:44:00.529Z,12.43
2019-02-20T01:46:29.673Z,11.67
2019-02-20T01:48:59.291Z,11.33
2019-02-20T01:51:30.223Z,12.33
2019-02-20T01:54:00.217Z,11.67
2019-02-20T01:56:29.535Z,12.67
2019-02-20T01:58:58.923Z,12.27
2019-02-20T02:01:28.737Z,12.10
2019-02-20T02:03:59.173Z,12.57
2019-02-20T02:06:28.957Z,13.60
2019-02-20T02:08:59.896Z,13.20
2019-02-20T02:11:30.410Z,12.87
2019-02-20T02:14:00.629Z,13.67
2019-02-20T02:16:30.790Z,13.13
2019-02-20T02:19:00.423Z,12.03
2019-02-20T02:21:30.531Z,12.50
2019-02-20T02:24:00.185Z,13.27
2019-02-20T02:26:31.915Z,13.07
2019-02-20T02:29:01.397Z,12.77
2019-02-20T02:31:31.614Z,13.30
2019-02-20T02:34:01.023Z,13.07
2019-02-20T02:36:30.447Z,13.40
2019-02-20T02:39:00.819Z,13.30
2019-02-20T02:41:30.353Z,13.07
2019-02-20T02:44:01.903Z,14.90
2019-02-20T02:46:31.451Z,13.83
2019-02-20T02:49:01.603Z,14.00
2019-02-20T02:51:31.499Z,14.43
2019-02-20T02:54:01.641Z,13.33
2019-02-20T02:56:31.831Z,14.17
2019-02-20T02:59:01.104Z,14.47
2019-02-20T03:01:32.007Z,15.63
2019-02-20T03:04:02.414Z,14.63
2019-02-20T03:06:31.762Z,13.83
2019-02-20T03:09:01.020Z,13.40
2019-02-20T03:11:30.576Z,13.73
2019-02-20T03:14:00.649Z,13.47
2019-02-20T03:16:30.246Z,13.67
2019-02-20T03:19:02.170Z,13.87
2019-02-20T03:21:32.383Z,14.00
2019-02-20T03:24:01.657Z,14.60
2019-02-20T03:26:31.851Z,14.87
2019-02-20T03:29:01.185Z,15.60
2019-02-20T03:31:30.408Z,14.93
2019-02-20T03:34:00.348Z,16.33
2019-02-20T03:36:31.981Z,14.00
2019-02-20T03:39:02.278Z,14.20
2019-02-20T03:41:31.754Z,15.67
2019-02-20T03:44:01.964Z,15.70
2019-02-20T03:46:31.495Z,13.77
2019-02-20T03:49:01.576Z,13.93
2019-02-20T03:51:31.060Z,14.33
2019-02-20T03:54:04.099Z,13.53
2019-02-20T03:56:34.271Z,14.40
2019-02-20T03:59:04.022Z,14.37
2019-02-20T04:01:33.930Z,14.67
2019-02-20T04:04:07.157Z,14.77
2019-02-20T04:06:38.188Z,15.13
2019-02-20T04:09:08.341Z,14.30
2019-02-20T04:11:37.615Z,15.77
2019-02-20T04:14:07.778Z,15.10
2019-02-20T04:16:37.284Z,15.67
2019-02-20T04:19:06.707Z,16.57
2019-02-20T04:21:36.987Z,15.13
2019-02-20T04:24:07.781Z,14.23
2019-02-20T04:26:39.352Z,15.80
2019-02-20T04:29:09.128Z,15.77
2019-02-20T04:31:39.293Z,16.10
2019-02-20T04:34:08.995Z,15.17
2019-02-20T04:36:39.446Z,15.63
2019-02-20T04:39:10.907Z,14.80
2019-02-20T04:41:41.270Z,18.65
2019-02-20T04:44:10.530Z,19.48
2019-02-20T04:46:40.102Z,15.03
2019-02-20T04:49:10.236Z,16.10
2019-02-20T04:51:39.709Z,16.50
2019-02-20T04:54:13.520Z,15.73
2019-02-20T04:56:42.763Z,16.23
2019-02-20T04:59:12.462Z,17.53
2019-02-20T05:01:41.963Z,18.63
2019-02-20T05:04:11.365Z,16.00
2019-02-20T05:06:41.206Z,16.80
2019-02-20T05:09:10.825Z,16.73
2019-02-20T05:11:40.661Z,15.93
2019-02-20T05:14:11.198Z,18.00
2019-02-20T05:16:41.346Z,16.80
2019-02-20T05:19:10.862Z,16.43
2019-02-20T05:21:40.876Z,15.47
2019-02-20T05:24:10.248Z,18.33
2019-02-20T05:26:39.559Z,17.73
2019-02-20T05:29:08.688Z,15.90
2019-02-20T05:31:38.869Z,17.00
2019-02-20T05:34:10.212Z,16.37
2019-02-20T05:36:40.383Z,16.03
2019-02-20T05:39:09.690Z,16.17
2019-02-20T05:41:39.787Z,16.30
2019-02-20T05:44:09.138Z,15.23
2019-02-20T05:46:38.751Z,16.97
2019-02-20T05:49:09.057Z,16.10
2019-02-20T05:51:39.867Z,16.50
2019-02-20T05:54:09.217Z,14.50
2019-02-20T05:56:38.642Z,16.40
2019-02-20T05:59:07.767Z,14.27
2019-02-20T06:01:37.313Z,16.00
2019-02-20T06:04:07.543Z,16.47
2019-02-20T06:06:37.065Z,16.83
2019-02-20T06:09:08.787Z,16.40
2019-02-20T06:11:39.129Z,16.33
2019-02-20T06:14:08.790Z,16.67
2019-02-20T06:16:38.420Z,19.27
2019-02-20T06:19:07.875Z,16.33
2019-02-20T06:21:37.658Z,17.10
2019-02-20T06:24:07.499Z,15.83
2019-02-20T06:26:37.149Z,15.87
2019-02-20T06:29:08.663Z,15.73
2019-02-20T06:31:37.961Z,15.53
2019-02-20T06:34:07.548Z,16.33
2019-02-20T06:36:36.933Z,17.10
2019-02-20T06:39:06.648Z,17.23
2019-02-20T06:41:39.200Z,17.57
2019-02-20T06:44:09.971Z,19.10
2019-02-20T06:46:40.513Z,18.70
2019-02-20T06:49:10.955Z,16.93
2019-02-20T06:51:41.010Z,17.67
2019-02-20T06:54:10.725Z,18.03
2019-02-20T06:56:40.799Z,18.27
2019-02-20T06:59:13.226Z,17.20
2019-02-20T07:01:43.321Z,18.73
2019-02-20T07:04:12.750Z,17.60
2019-02-20T07:06:45.153Z,16.50
2019-02-20T07:09:33.021Z,17.37
2019-02-20T07:12:10.322Z,16.67
2019-02-20T07:14:48.229Z,16.77
2019-02-20T07:17:27.305Z,16.77
2019-02-20T07:20:15.393Z,18.17
2019-02-20T07:22:47.809Z,18.53
2019-02-20T07:25:22.859Z,17.53
2019-02-20T07:28:06.984Z,18.37
2019-02-20T07:30:37.689Z,20.27
2019-02-20T07:33:06.925Z,18.60
2019-02-20T07:35:37.302Z,19.43
2019-02-20T07:38:08.324Z,21.40
2019-02-20T07:40:37.671Z,19.27
2019-02-20T07:43:06.871Z,20.83
2019-02-20T07:45:36.809Z,20.03
2019-02-20T07:48:07.055Z,19.50
2019-02-20T07:50:36.805Z,19.93
2019-02-20T07:53:08.865Z,18.03
2019-02-20T07:55:38.166Z,19.43
2019-02-20T07:58:08.293Z,17.60
2019-02-20T08:00:37.581Z,16.93
2019-02-20T08:03:07.106Z,18.50
2019-02-20T08:05:36.219Z,17.07
2019-02-20T08:08:05.706Z,16.87
2019-02-20T08:10:34.970Z,19.33
2019-02-20T08:13:05.822Z,16.80
2019-02-20T08:15:35.223Z,15.90
2019-02-20T08:18:04.492Z,15.80
2019-02-20T08:20:33.831Z,15.93
2019-02-20T08:23:03.353Z,16.30
2019-02-20T08:25:32.639Z,17.20
2019-02-20T08:28:01.840Z,16.20
2019-02-20T08:30:31.993Z,15.30
2019-02-20T08:33:02.205Z,20.63
2019-02-20T08:35:33.207Z,17.83
2019-02-20T08:38:02.700Z,16.93
2019-02-20T08:40:32.781Z,15.20
2019-02-20T08:43:02.925Z,15.43
2019-02-20T08:45:32.477Z,16.17
2019-02-20T08:48:02.629Z,17.57
2019-02-20T08:50:32.832Z,16.20
2019-02-20T08:53:03.220Z,17.83
2019-02-20T08:55:32.529Z,17.70
2019-02-20T08:58:02.780Z,20.20
2019-02-20T09:00:32.322Z,19.30
2019-02-20T09:03:01.471Z,22.83
2019-02-20T09:05:30.707Z,24.43
2019-02-20T09:08:02.819Z,18.23
2019-02-20T09:10:33.000Z,17.73
2019-02-20T09:13:02.650Z,16.60
2019-02-20T09:15:31.852Z,19.80
2019-02-20T09:18:01.204Z,17.27
2019-02-20T09:20:30.738Z,17.77
2019-02-20T09:23:00.269Z,19.00
2019-02-20T09:25:30.241Z,18.67
2019-02-20T09:28:01.739Z,18.60
2019-02-20T09:30:31.464Z,17.97
2019-02-20T09:33:00.563Z,18.53
2019-02-20T09:35:30.413Z,19.00
2019-02-20T09:38:00.175Z,19.57
2019-02-20T09:40:29.407Z,19.50
2019-02-20T09:42:59.170Z,20.10
2019-02-20T09:45:30.403Z,18.97
2019-02-20T09:48:01.380Z,19.50
2019-02-20T09:50:31.369Z,20.00
2019-02-20T09:53:00.912Z,20.03
2019-02-20T09:55:30.656Z,19.00
2019-02-20T09:58:00.639Z,19.43
2019-02-20T10:00:30.278Z,19.57
2019-02-20T10:03:01.287Z,17.17
2019-02-20T10:05:31.041Z,18.60
2019-02-20T10:08:00.827Z,22.60
2019-02-20T10:10:30.496Z,18.63
2019-02-20T10:12:59.998Z,18.20
2019-02-20T10:15:29.304Z,23.73
2019-02-20T10:17:58.601Z,24.63
2019-02-20T10:20:28.047Z,20.90
2019-02-20T10:22:58.955Z,20.50
2019-02-20T10:25:29.412Z,21.10
2019-02-20T10:27:58.646Z,20.00
2019-02-20T10:30:28.789Z,18.93
2019-02-20T10:32:58.169Z,18.63
2019-02-20T10:35:27.873Z,20.00
2019-02-20T10:37:57.997Z,20.07
2019-02-20T10:40:28.379Z,21.07
2019-02-20T10:42:58.423Z,20.67
2019-02-20T10:45:28.713Z,18.40
2019-02-20T10:47:57.861Z,19.50
2019-02-20T10:50:27.175Z,19.13
2019-02-20T10:52:57.321Z,19.20
2019-02-20T10:55:26.577Z,18.80
2019-02-20T10:57:58.039Z,19.00
2019-02-20T11:00:31.221Z,18.40
2019-02-20T11:03:00.948Z,17.83
2019-02-20T11:05:30.406Z,18.70
2019-02-20T11:08:00.176Z,20.80
2019-02-20T11:10:31.290Z,21.47
2019-02-20T11:13:02.894Z,18.03
2019-02-20T11:15:32.864Z,19.20
2019-02-20T11:18:02.641Z,16.70
2019-02-20T11:20:32.705Z,17.03
2019-02-20T11:23:02.209Z,16.73
2019-02-20T11:25:31.826Z,17.42
2019-02-20T11:28:02.045Z,17.62
2019-02-20T11:30:34.058Z,16.43
2019-02-20T11:33:03.538Z,16.53
2019-02-20T11:35:33.207Z,15.57
2019-02-20T11:38:03.005Z,16.93
2019-02-20T11:40:33.141Z,17.70
2019-02-20T11:43:02.509Z,16.87
2019-02-20T11:45:31.746Z,15.08
2019-02-20T11:48:01.971Z,17.97
2019-02-20T11:50:32.047Z,14.70
2019-02-20T11:53:01.791Z,14.73
2019-02-20T11:55:31.486Z,13.77
2019-02-20T11:58:01.669Z,14.13
2019-02-20T12:00:31.173Z,12.90
2019-02-20T12:03:00.407Z,13.67
2019-02-20T12:05:31.653Z,13.07
2019-02-20T12:08:02.333Z,13.73
2019-02-20T12:10:31.797Z,12.03
2019-02-20T12:13:01.571Z,12.20
2019-02-20T12:15:31.037Z,13.03
2019-02-20T12:18:01.054Z,12.03
2019-02-20T12:20:30.529Z,12.87
2019-02-20T12:22:59.684Z,11.27
2019-02-20T12:25:31.869Z,12.00
2019-02-20T12:28:01.294Z,11.90
2019-02-20T12:30:31.394Z,11.27
2019-02-20T12:33:00.819Z,10.10
2019-02-20T12:35:30.950Z,10.10
2019-02-20T12:38:02.359Z,10.00
2019-02-20T12:40:33.768Z,10.47
2019-02-20T12:43:03.189Z,9.50
2019-02-20T12:45:32.413Z,10.17
2019-02-20T12:48:01.964Z,9.37
2019-02-20T12:50:32.055Z,8.77
2019-02-20T12:53:02.194Z,8.50
2019-02-20T12:55:31.873Z,10.47
2019-02-20T12:58:02.895Z,9.33
2019-02-20T13:00:33.697Z,9.07
2019-02-20T13:03:03.449Z,8.13
2019-02-20T13:05:33.016Z,8.30
2019-02-20T13:08:02.468Z,8.90
2019-02-20T13:10:32.545Z,9.03
2019-02-20T13:13:01.918Z,8.07
2019-02-20T13:15:34.426Z,8.03
2019-02-20T13:18:04.591Z,8.70
2019-02-20T13:20:34.875Z,8.30
2019-02-20T13:23:04.855Z,9.00
2019-02-20T13:25:34.143Z,7.97
2019-02-20T13:28:04.285Z,7.80
2019-02-20T13:30:36.286Z,7.47
2019-02-20T13:33:06.044Z,7.53
2019-02-20T13:35:35.862Z,7.03
2019-02-20T13:38:05.724Z,7.97
2019-02-20T13:40:35.382Z,6.43
2019-02-20T13:43:05.447Z,7.37
2019-02-20T13:45:35.870Z,8.53
2019-02-20T13:48:08.044Z,7.00
2019-02-20T13:50:37.979Z,7.43
2019-02-20T13:53:08.347Z,7.60
2019-02-20T13:55:37.952Z,6.90
2019-02-20T13:58:07.109Z,7.47
2019-02-20T14:00:36.623Z,6.73
2019-02-20T14:03:06.256Z,6.57
2019-02-20T14:05:36.948Z,7.63
2019-02-20T14:08:06.510Z,7.33
2019-02-20T14:10:36.684Z,7.63
2019-02-20T14:13:07.024Z,8.23
2019-02-20T14:15:37.133Z,8.23
2019-02-20T14:18:06.556Z,7.00
2019-02-20T14:20:35.935Z,7.67
2019-02-20T14:23:07.841Z,9.57
2019-02-20T14:25:37.353Z,8.77
2019-02-20T14:28:07.268Z,7.97
2019-02-20T14:30:36.616Z,7.83
2019-02-20T14:33:06.067Z,8.80
2019-02-20T14:35:35.654Z,8.57
2019-02-20T14:38:06.024Z,7.73
2019-02-20T14:40:37.154Z,8.57
2019-02-20T14:43:07.259Z,8.80
2019-02-20T14:45:37.095Z,9.00
2019-02-20T14:48:06.851Z,9.80
2019-02-20T14:50:36.226Z,9.07
2019-02-20T14:53:06.416Z,10.27
2019-02-20T14:55:36.743Z,9.37
2019-02-20T14:58:07.202Z,9.73
2019-02-20T15:00:37.346Z,9.00
2019-02-20T15:03:06.684Z,9.13
2019-02-20T15:05:36.346Z,8.90
2019-02-20T15:08:06.042Z,9.67
2019-02-20T15:10:35.738Z,8.87
2019-02-20T15:13:05.754Z,10.20
2019-02-20T15:15:36.572Z,11.23
2019-02-20T15:18:07.568Z,9.77
2019-02-20T15:20:37.876Z,10.00
2019-02-20T15:23:07.990Z,9.73
2019-02-20T15:25:37.581Z,9.50
2019-02-20T15:28:07.776Z,9.73
2019-02-20T15:30:40.123Z,9.20
2019-02-20T15:33:10.308Z,8.97
2019-02-20T15:35:40.007Z,9.07
2019-02-20T15:38:10.251Z,9.37
2019-02-20T15:40:39.514Z,8.17
2019-02-20T15:43:09.436Z,8.57
2019-02-20T15:45:39.872Z,8.63
2019-02-20T15:48:10.952Z,8.90
2019-02-20T15:50:40.764Z,8.57
2019-02-20T15:53:10.061Z,8.70
2019-02-20T15:55:39.531Z,8.83
2019-02-20T15:58:09.524Z,7.83
2019-02-20T16:00:41.411Z,8.67
2019-02-20T16:03:12.995Z,8.37
2019-02-20T16:05:44.277Z,8.27
2019-02-20T16:08:13.805Z,8.83
2019-02-20T16:10:43.370Z,9.00
2019-02-20T16:13:12.927Z,8.63
2019-02-20T16:15:42.184Z,8.13
2019-02-20T16:18:12.247Z,8.90
2019-02-20T16:20:43.659Z,9.00
2019-02-20T16:23:12.988Z,9.13
2019-02-20T16:25:42.470Z,8.97
2019-02-20T16:28:11.606Z,8.17
2019-02-20T16:30:41.311Z,9.63
2019-02-20T16:33:11.036Z,10.00
2019-02-20T16:35:40.403Z,9.53
2019-02-20T16:38:09.919Z,10.23
2019-02-20T16:40:41.895Z,9.93
2019-02-20T16:43:11.280Z,9.43
2019-02-20T16:45:40.497Z,9.00
2019-02-20T16:48:10.019Z,8.67
2019-02-20T16:50:39.708Z,8.80
2019-02-20T16:53:09.186Z,8.60
2019-02-20T16:55:38.874Z,8.57
2019-02-20T16:58:10.258Z,9.13
2019-02-20T17:00:40.069Z,9.70
2019-02-20T17:03:10.496Z,9.00
2019-02-20T17:05:40.453Z,9.90
2019-02-20T17:08:10.218Z,9.40
2019-02-20T17:10:39.906Z,9.87
2019-02-20T17:13:10.062Z,9.47
2019-02-20T17:15:42.325Z,10.27
2019-02-20T17:18:11.394Z,10.80
2019-02-20T17:20:40.874Z,10.37
2019-02-20T17:23:10.898Z,11.50
2019-02-20T17:25:40.114Z,11.43
2019-02-20T17:28:09.762Z,12.10
2019-02-20T17:30:39.125Z,11.90
2019-02-20T17:33:13.215Z,11.50
2019-02-20T17:35:42.881Z,12.17
2019-02-20T17:38:12.987Z,11.77
2019-02-20T17:40:43.651Z,11.53
2019-02-20T17:43:13.788Z,11.83
2019-02-20T17:45:43.176Z,11.60
2019-02-20T17:48:14.416Z,12.67
2019-02-20T17:50:44.222Z,12.40
2019-02-20T17:53:14.287Z,14.53
2019-02-20T17:55:43.817Z,13.50
2019-02-20T17:58:15.471Z,14.20
2019-02-20T18:00:45.128Z,25.77
2019-02-20T18:03:15.400Z,16.73
2019-02-20T18:05:47.429Z,16.30
2019-02-20T18:08:16.851Z,16.63
2019-02-20T18:10:46.171Z,15.23
2019-02-20T18:13:16.570Z,15.80
2019-02-20T18:15:46.856Z,16.77
2019-02-20T18:18:17.230Z,16.13
2019-02-20T18:20:48.555Z,15.03
2019-02-20T18:23:18.606Z,13.43
2019-02-20T18:25:47.910Z,14.03
2019-02-20T18:28:24.151Z,14.67
2019-02-20T18:30:48.846Z,14.90
2019-02-20T18:33:19.316Z,14.27
2019-02-20T18:35:51.510Z,14.00
2019-02-20T18:38:21.704Z,14.00
2019-02-20T18:40:51.826Z,14.77
2019-02-20T18:43:21.593Z,13.30
2019-02-20T18:45:51.735Z,14.33
2019-02-20T18:48:21.440Z,14.60
2019-02-20T18:50:53.428Z,15.27
2019-02-20T18:53:23.608Z,15.30
2019-02-20T18:55:52.787Z,14.83
2019-02-20T18:58:22.182Z,15.17
2019-02-20T19:00:51.933Z,17.30
2019-02-20T19:03:21.680Z,18.10
2019-02-20T19:05:51.195Z,17.33
2019-02-20T19:08:33.199Z,14.80
2019-02-20T19:11:05.344Z,14.00
2019-02-20T19:13:37.111Z,16.17
2019-02-20T19:16:23.807Z,15.60
2019-02-20T19:19:03.326Z,15.23
2019-02-20T19:21:42.845Z,14.40
2019-02-20T19:24:34.544Z,15.47
2019-02-20T19:27:22.660Z,14.07
2019-02-20T19:30:23.051Z,14.90
2019-02-20T19:32:58.729Z,15.30
2019-02-20T19:35:49.099Z,15.40
2019-02-20T19:38:34.098Z,14.23
2019-02-20T19:41:28.494Z,14.97
2019-02-20T19:44:13.325Z,13.50
2019-02-20T19:46:51.421Z,12.27
2019-02-20T19:49:36.207Z,14.03
2019-02-20T19:52:10.519Z,13.87
2019-02-20T19:54:46.470Z,13.83
2019-02-20T19:57:28.706Z,14.73
2019-02-20T20:00:20.416Z,13.83
2019-02-20T20:03:09.696Z,13.67
2019-02-20T20:05:54.637Z,12.60
2019-02-20T20:08:29.174Z,12.87
2019-02-20T20:11:06.579Z,12.03
2019-02-20T20:13:46.033Z,11.57
2019-02-20T20:16:23.879Z,12.03
2019-02-20T20:19:30.363Z,12.47
2019-02-20T20:22:08.088Z,12.60
2019-02-20T20:24:49.336Z,12.77
2019-02-20T20:27:32.500Z,13.13
2019-02-20T20:30:23.962Z,12.73
2019-02-20T20:33:28.912Z,12.97
2019-02-20T20:36:18.615Z,12.40
2019-02-20T20:38:56.936Z,13.53
2019-02-20T20:41:32.570Z,13.07
2019-02-20T20:44:28.369Z,13.70
2019-02-20T20:47:03.346Z,13.33
2019-02-20T20:49:52.696Z,14.33
2019-02-20T20:52:31.384Z,13.77
2019-02-20T20:55:06.465Z,13.87
2019-02-20T20:57:38.305Z,13.70
2019-02-20T21:00:41.092Z,12.93
2019-02-20T21:03:14.301Z,14.47
2019-02-20T21:05:58.204Z,14.23
2019-02-20T21:08:40.603Z,13.13
2019-02-20T21:11:12.501Z,13.80
2019-02-20T21:13:54.582Z,14.83
2019-02-20T21:16:48.468Z,16.40
2019-02-20T21:19:44.185Z,14.57
2019-02-20T21:22:16.606Z,14.57
2019-02-20T21:25:05.415Z,16.23
2019-02-20T21:27:53.330Z,14.80
2019-02-20T21:30:41.362Z,15.93
2019-02-20T21:33:47.251Z,15.07
2019-02-20T21:36:21.950Z,14.87
2019-02-20T21:38:53.820Z,14.77
2019-02-20T21:41:25.846Z,16.10
2019-02-20T21:44:26.438Z,15.73
2019-02-20T21:47:10.775Z,14.83
2019-02-20T21:49:48.463Z,15.00
2019-02-20T21:52:32.502Z,14.37
2019-02-20T21:55:31.223Z,14.80
2019-02-20T21:58:08.945Z,13.43
2019-02-20T22:00:46.264Z,13.27
2019-02-20T22:03:27.426Z,14.73
2019-02-20T22:06:02.940Z,14.23
2019-02-20T22:08:50.466Z,14.57
2019-02-20T22:11:39.593Z,14.80
2019-02-20T22:14:31.940Z,14.37
2019-02-20T22:17:31.744Z,12.73
2019-02-20T22:20:20.791Z,14.43
2019-02-20T22:23:03.375Z,13.17
2019-02-20T22:25:51.858Z,12.97
2019-02-20T22:28:48.486Z,13.57
2019-02-20T22:31:23.400Z,13.73
2019-02-20T22:34:29.010Z,14.20
2019-02-20T22:37:28.809Z,14.90
2019-02-20T22:40:00.456Z,13.87
2019-02-20T22:42:41.651Z,14.17
2019-02-20T22:45:30.710Z,14.90
2019-02-20T22:48:16.374Z,14.63
2019-02-20T22:51:00.729Z,14.87
2019-02-20T22:53:51.119Z,15.07
2019-02-20T22:56:42.848Z,15.87
2019-02-20T22:59:17.719Z,16.87
2019-02-20T23:02:04.752Z,16.97
2019-02-20T23:04:42.710Z,17.93
2019-02-20T23:07:18.523Z,16.13
2019-02-20T23:10:09.694Z,17.03
2019-02-20T23:12:54.206Z,16.47
2019-02-20T23:15:23.727Z,16.20
2019-02-20T23:17:52.927Z,15.67
2019-02-20T23:20:22.237Z,16.63
2019-02-20T23:22:51.368Z,15.97
2019-02-20T23:25:22.340Z,16.90
2019-02-20T23:27:52.574Z,15.87
2019-02-20T23:30:21.792Z,15.57
2019-02-20T23:32:51.966Z,15.43
2019-02-20T23:35:21.862Z,14.77
2019-02-20T23:37:51.925Z,15.90
2019-02-20T23:40:21.543Z,16.90
2019-02-20T23:42:52.599Z,15.77
2019-02-20T23:45:22.530Z,14.87
2019-02-20T23:47:51.900Z,15.50
2019-02-20T23:50:21.257Z,16.00
2019-02-20T23:52:50.608Z,15.30
2019-02-20T23:55:20.010Z,15.30
2019-02-20T23:57:49.344Z,15.67
